sensor_id;sensor_type;location;lat;lon;timestamp;pressure;altitude;pressure_sealevel;temperature;humidity
43770;BME280;6597;52.218;9.882;2022-07-04T00:01:20;101019.50;;;16.40;87.98
43770;BME280;6597;52.218;9.882;2022-07-04T00:03:48;101023.28;;;16.36;88.57
43770;BME280;6597;52.218;9.882;2022-07-04T00:06:14;101025.22;;;16.32;88.67
43770;BME280;6597;52.218;9.882;2022-07-04T00:08:41;101023.69;;;16.28;89.36
43770;BME280;6597;52.218;9.882;2022-07-04T00:11:07;101013.41;;;16.22;89.83
43770;BME280;6597;52.218;9.882;2022-07-04T00:13:34;101017.16;;;16.18;90.04
43770;BME280;6597;52.218;9.882;2022-07-04T00:16:00;101011.25;;;16.13;90.58
43770;BME280;6597;52.218;9.882;2022-07-04T00:18:27;101018.59;;;16.08;90.77
43770;BME280;6597;52.218;9.882;2022-07-04T00:20:55;101020.56;;;16.04;90.96
43770;BME280;6597;52.218;9.882;2022-07-04T00:23:22;101020.66;;;16.03;91.11
43770;BME280;6597;52.218;9.882;2022-07-04T00:25:48;101024.41;;;15.99;91.19
43770;BME280;6597;52.218;9.882;2022-07-04T00:28:15;101026.34;;;15.95;91.34
43770;BME280;6597;52.218;9.882;2022-07-04T00:30:41;101024.69;;;15.93;91.04
43770;BME280;6597;52.218;9.882;2022-07-04T00:33:11;101029.38;;;15.87;89.53
43770;BME280;6597;52.218;9.882;2022-07-04T00:35:37;101026.81;;;15.86;88.67
43770;BME280;6597;52.218;9.882;2022-07-04T00:38:05;101030.25;;;15.88;88.52
43770;BME280;6597;52.218;9.882;2022-07-04T00:40:32;101030.16;;;15.90;88.58
43770;BME280;6597;52.218;9.882;2022-07-04T00:43:00;101015.22;;;15.88;87.84
43770;BME280;6597;52.218;9.882;2022-07-04T00:45:27;101019.75;;;15.86;87.74
43770;BME280;6597;52.218;9.882;2022-07-04T00:47:54;101025.19;;;15.83;87.85
43770;BME280;6597;52.218;9.882;2022-07-04T00:50:20;101025.28;;;15.82;88.34
43770;BME280;6597;52.218;9.882;2022-07-04T00:52:47;101036.97;;;15.78;88.59
43770;BME280;6597;52.218;9.882;2022-07-04T00:55:16;101032.00;;;15.72;88.89
43770;BME280;6597;52.218;9.882;2022-07-04T00:57:43;101031.63;;;15.62;89.21
43770;BME280;6597;52.218;9.882;2022-07-04T01:00:10;101034.69;;;15.53;89.82
43770;BME280;6597;52.218;9.882;2022-07-04T01:02:37;101035.09;;;15.45;89.86
43770;BME280;6597;52.218;9.882;2022-07-04T01:05:04;101037.97;;;15.41;90.63
43770;BME280;6597;52.218;9.882;2022-07-04T01:07:32;101033.84;;;15.35;91.03
43770;BME280;6597;52.218;9.882;2022-07-04T01:09:59;101031.44;;;15.31;91.18
43770;BME280;6597;52.218;9.882;2022-07-04T01:12:28;101033.44;;;15.25;91.91
43770;BME280;6597;52.218;9.882;2022-07-04T01:14:54;101030.16;;;15.20;92.20
43770;BME280;6597;52.218;9.882;2022-07-04T01:17:21;101025.97;;;15.16;92.38
43770;BME280;6597;52.218;9.882;2022-07-04T01:19:48;101024.41;;;15.12;92.73
43770;BME280;6597;52.218;9.882;2022-07-04T01:22:17;101035.28;;;15.06;93.24
43770;BME280;6597;52.218;9.882;2022-07-04T01:24:44;101035.28;;;15.06;93.57
43770;BME280;6597;52.218;9.882;2022-07-04T01:27:11;101027.59;;;15.02;93.58
43770;BME280;6597;52.218;9.882;2022-07-04T01:29:37;101034.91;;;14.97;94.15
43770;BME280;6597;52.218;9.882;2022-07-04T01:32:04;101032.53;;;14.90;94.29
43770;BME280;6597;52.218;9.882;2022-07-04T01:34:31;101027.47;;;14.86;94.59
43770;BME280;6597;52.218;9.882;2022-07-04T01:36:58;101028.41;;;14.85;94.82
43770;BME280;6597;52.218;9.882;2022-07-04T01:39:27;101031.19;;;14.82;95.26
43770;BME280;6597;52.218;9.882;2022-07-04T01:41:54;101038.34;;;14.80;95.76
43770;BME280;6597;52.218;9.882;2022-07-04T01:44:20;101036.78;;;14.76;95.49
43770;BME280;6597;52.218;9.882;2022-07-04T01:46:47;101035.22;;;14.72;96.32
43770;BME280;6597;52.218;9.882;2022-07-04T01:49:14;101038.09;;;14.67;96.39
43770;BME280;6597;52.218;9.882;2022-07-04T01:51:44;101035.63;;;14.62;96.42
43770;BME280;6597;52.218;9.882;2022-07-04T01:54:10;101036.63;;;14.60;96.42
43770;BME280;6597;52.218;9.882;2022-07-04T01:56:39;101037.56;;;14.59;96.67
43770;BME280;6597;52.218;9.882;2022-07-04T01:59:06;101037.00;;;14.52;97.19
43770;BME280;6597;52.218;9.882;2022-07-04T02:01:33;101033.56;;;14.50;97.13
43770;BME280;6597;52.218;9.882;2022-07-04T02:04:00;101028.50;;;14.46;97.04
43770;BME280;6597;52.218;9.882;2022-07-04T02:06:27;101026.88;;;14.43;97.70
43770;BME280;6597;52.218;9.882;2022-07-04T02:08:55;101029.69;;;14.39;98.75
43770;BME280;6597;52.218;9.882;2022-07-04T02:11:41;101018.50;;;14.33;98.74
43770;BME280;6597;52.218;9.882;2022-07-04T02:14:25;101023.00;;;14.31;98.35
43770;BME280;6597;52.218;9.882;2022-07-04T02:16:52;101028.31;;;14.30;98.83
43770;BME280;6597;52.218;9.882;2022-07-04T02:19:18;101028.53;;;14.25;99.11
43770;BME280;6597;52.218;9.882;2022-07-04T02:21:45;101038.25;;;14.25;98.93
43770;BME280;6597;52.218;9.882;2022-07-04T02:24:11;101037.53;;;14.21;99.06
43770;BME280;6597;52.218;9.882;2022-07-04T02:26:39;101038.44;;;14.20;99.07
43770;BME280;6597;52.218;9.882;2022-07-04T02:29:06;101039.44;;;14.18;99.61
43770;BME280;6597;52.218;9.882;2022-07-04T02:31:33;101043.03;;;14.17;99.68
43770;BME280;6597;52.218;9.882;2022-07-04T02:33:59;101039.59;;;14.15;99.14
43770;BME280;6597;52.218;9.882;2022-07-04T02:36:26;101032.59;;;14.14;99.01
43770;BME280;6597;52.218;9.882;2022-07-04T02:38:52;101029.25;;;14.10;99.03
43770;BME280;6597;52.218;9.882;2022-07-04T02:41:19;101041.66;;;14.08;99.28
43770;BME280;6597;52.218;9.882;2022-07-04T02:43:47;101045.16;;;14.09;99.06
43770;BME280;6597;52.218;9.882;2022-07-04T02:46:13;101045.22;;;14.07;99.24
43770;BME280;6597;52.218;9.882;2022-07-04T02:48:40;101049.78;;;14.04;98.58
43770;BME280;6597;52.218;9.882;2022-07-04T02:51:07;101048.00;;;14.04;99.72
43770;BME280;6597;52.218;9.882;2022-07-04T02:53:33;101056.00;;;14.02;99.53
43770;BME280;6597;52.218;9.882;2022-07-04T02:56:00;101052.50;;;14.02;99.53
43770;BME280;6597;52.218;9.882;2022-07-04T02:58:29;101065.78;;;14.00;99.63
43770;BME280;6597;52.218;9.882;2022-07-04T03:00:57;101064.09;;;13.98;99.54
43770;BME280;6597;52.218;9.882;2022-07-04T03:03:24;101062.44;;;13.95;99.04
43770;BME280;6597;52.218;9.882;2022-07-04T03:05:50;101059.09;;;13.92;99.28
43770;BME280;6597;52.218;9.882;2022-07-04T03:08:17;101062.66;;;13.91;99.40
43770;BME280;6597;52.218;9.882;2022-07-04T03:10:44;101059.38;;;13.86;99.86
43770;BME280;6597;52.218;9.882;2022-07-04T03:13:10;101070.91;;;13.83;99.81
43770;BME280;6597;52.218;9.882;2022-07-04T03:15:37;101073.69;;;13.80;99.71
43770;BME280;6597;52.218;9.882;2022-07-04T03:18:05;101073.03;;;13.75;99.69
43770;BME280;6597;52.218;9.882;2022-07-04T03:20:31;101081.88;;;13.74;99.75
43770;BME280;6597;52.218;9.882;2022-07-04T03:22:58;101082.94;;;13.70;99.72
43770;BME280;6597;52.218;9.882;2022-07-04T03:25:25;101084.72;;;13.69;100.00
43770;BME280;6597;52.218;9.882;2022-07-04T03:27:51;101088.22;;;13.70;100.00
43770;BME280;6597;52.218;9.882;2022-07-04T03:30:18;101095.13;;;13.73;100.00
43770;BME280;6597;52.218;9.882;2022-07-04T03:32:45;101093.94;;;13.80;100.00
43770;BME280;6597;52.218;9.882;2022-07-04T03:35:13;101090.16;;;13.85;100.00
43770;BME280;6597;52.218;9.882;2022-07-04T03:37:39;101079.34;;;13.91;100.00
43770;BME280;6597;52.218;9.882;2022-07-04T03:40:07;101092.34;;;13.96;100.00
43770;BME280;6597;52.218;9.882;2022-07-04T03:42:34;101091.38;;;13.98;100.00
43770;BME280;6597;52.218;9.882;2022-07-04T03:45:01;101096.50;;;14.01;100.00
43770;BME280;6597;52.218;9.882;2022-07-04T03:47:27;101101.72;;;14.03;100.00
43770;BME280;6597;52.218;9.882;2022-07-04T03:49:54;101104.28;;;14.05;100.00
43770;BME280;6597;52.218;9.882;2022-07-04T03:52:22;101105.81;;;14.10;100.00
43770;BME280;6597;52.218;9.882;2022-07-04T03:54:48;101108.25;;;14.15;100.00
43770;BME280;6597;52.218;9.882;2022-07-04T03:57:15;101109.81;;;14.19;100.00
43770;BME280;6597;52.218;9.882;2022-07-04T03:59:41;101113.25;;;14.21;99.92
43770;BME280;6597;52.218;9.882;2022-07-04T04:02:08;101114.03;;;14.23;99.15
43770;BME280;6597;52.218;9.882;2022-07-04T04:04:34;101113.09;;;14.24;98.89
43770;BME280;6597;52.218;9.882;2022-07-04T04:07:19;101120.03;;;14.26;98.30
43770;BME280;6597;52.218;9.882;2022-07-04T04:09:47;101112.97;;;14.27;98.30
43770;BME280;6597;52.218;9.882;2022-07-04T04:12:13;101111.19;;;14.27;98.08
43770;BME280;6597;52.218;9.882;2022-07-04T04:14:40;101114.56;;;14.31;98.08
43770;BME280;6597;52.218;9.882;2022-07-04T04:17:07;101120.72;;;14.31;97.90
43770;BME280;6597;52.218;9.882;2022-07-04T04:19:33;101117.22;;;14.31;97.99
43770;BME280;6597;52.218;9.882;2022-07-04T04:22:00;101119.84;;;14.31;98.48
43770;BME280;6597;52.218;9.882;2022-07-04T04:24:27;101118.94;;;14.32;98.66
43770;BME280;6597;52.218;9.882;2022-07-04T04:26:54;101125.00;;;14.34;98.36
43770;BME280;6597;52.218;9.882;2022-07-04T04:29:21;101138.06;;;14.37;98.83
43770;BME280;6597;52.218;9.882;2022-07-04T04:31:48;101132.72;;;14.39;98.72
43770;BME280;6597;52.218;9.882;2022-07-04T04:34:23;101141.34;;;14.42;98.96
43770;BME280;6597;52.218;9.882;2022-07-04T04:36:50;101140.25;;;14.48;98.67
43770;BME280;6597;52.218;9.882;2022-07-04T04:39:16;101140.16;;;14.49;99.52
43770;BME280;6597;52.218;9.882;2022-07-04T04:41:43;101149.53;;;14.56;99.53
43770;BME280;6597;52.218;9.882;2022-07-04T04:44:11;101144.03;;;14.61;99.92
43770;BME280;6597;52.218;9.882;2022-07-04T04:46:37;101145.50;;;14.68;99.61
43770;BME280;6597;52.218;9.882;2022-07-04T04:49:04;101147.00;;;14.74;99.45
43770;BME280;6597;52.218;9.882;2022-07-04T04:51:30;101146.78;;;14.78;99.76
43770;BME280;6597;52.218;9.882;2022-07-04T04:53:57;101146.47;;;14.84;100.00
43770;BME280;6597;52.218;9.882;2022-07-04T04:56:24;101147.75;;;14.94;100.00
43770;BME280;6597;52.218;9.882;2022-07-04T04:58:50;101157.13;;;15.02;100.00
43770;BME280;6597;52.218;9.882;2022-07-04T05:01:18;101163.84;;;15.09;100.00
43770;BME280;6597;52.218;9.882;2022-07-04T05:03:45;101155.53;;;15.16;100.00
43770;BME280;6597;52.218;9.882;2022-07-04T05:06:11;101152.44;;;15.25;100.00
43770;BME280;6597;52.218;9.882;2022-07-04T05:08:38;101155.44;;;15.37;100.00
43770;BME280;6597;52.218;9.882;2022-07-04T05:11:05;101159.97;;;15.52;100.00
43770;BME280;6597;52.218;9.882;2022-07-04T05:13:32;101166.44;;;15.65;100.00
43770;BME280;6597;52.218;9.882;2022-07-04T05:15:58;101168.31;;;15.80;100.00
43770;BME280;6597;52.218;9.882;2022-07-04T05:18:27;101165.84;;;15.95;100.00
43770;BME280;6597;52.218;9.882;2022-07-04T05:20:53;101170.56;;;16.05;98.34
43770;BME280;6597;52.218;9.882;2022-07-04T05:23:20;101161.13;;;16.17;96.94
43770;BME280;6597;52.218;9.882;2022-07-04T05:25:47;101162.31;;;16.29;94.87
43770;BME280;6597;52.218;9.882;2022-07-04T05:28:13;101174.28;;;16.36;94.49
43770;BME280;6597;52.218;9.882;2022-07-04T05:30:40;101167.81;;;16.41;94.01
43770;BME280;6597;52.218;9.882;2022-07-04T05:33:07;101162.00;;;16.50;94.43
43770;BME280;6597;52.218;9.882;2022-07-04T05:35:35;101153.50;;;16.61;93.08
43770;BME280;6597;52.218;9.882;2022-07-04T05:38:02;101152.25;;;16.68;93.98
43770;BME280;6597;52.218;9.882;2022-07-04T05:40:29;101164.50;;;16.87;91.96
43770;BME280;6597;52.218;9.882;2022-07-04T05:42:56;101154.44;;;16.93;91.40
43770;BME280;6597;52.218;9.882;2022-07-04T05:45:23;101167.44;;;16.98;91.77
43770;BME280;6597;52.218;9.882;2022-07-04T05:47:49;101158.97;;;17.07;90.97
43770;BME280;6597;52.218;9.882;2022-07-04T05:50:16;101162.13;;;17.14;91.22
43770;BME280;6597;52.218;9.882;2022-07-04T05:52:44;101160.44;;;17.28;91.35
43770;BME280;6597;52.218;9.882;2022-07-04T05:55:10;101161.59;;;17.38;89.97
43770;BME280;6597;52.218;9.882;2022-07-04T05:57:37;101160.91;;;17.51;89.61
43770;BME280;6597;52.218;9.882;2022-07-04T06:00:05;101157.47;;;17.64;88.67
43770;BME280;6597;52.218;9.882;2022-07-04T06:02:31;101154.88;;;17.79;87.15
43770;BME280;6597;52.218;9.882;2022-07-04T06:04:58;101158.53;;;17.92;85.98
43770;BME280;6597;52.218;9.882;2022-07-04T06:07:25;101158.84;;;18.01;84.87
43770;BME280;6597;52.218;9.882;2022-07-04T06:09:52;101156.47;;;18.11;84.57
43770;BME280;6597;52.218;9.882;2022-07-04T06:12:19;101153.00;;;18.25;83.82
43770;BME280;6597;52.218;9.882;2022-07-04T06:14:46;101165.72;;;18.34;82.02
43770;BME280;6597;52.218;9.882;2022-07-04T06:17:12;101164.31;;;18.43;81.58
43770;BME280;6597;52.218;9.882;2022-07-04T06:19:39;101155.50;;;18.56;80.89
43770;BME280;6597;52.218;9.882;2022-07-04T06:22:05;101153.31;;;18.77;79.17
43770;BME280;6597;52.218;9.882;2022-07-04T06:24:32;101150.81;;;19.03;79.22
43770;BME280;6597;52.218;9.882;2022-07-04T06:27:00;101151.19;;;19.38;78.64
43770;BME280;6597;52.218;9.882;2022-07-04T06:29:28;101150.69;;;19.72;75.55
43770;BME280;6597;52.218;9.882;2022-07-04T06:31:55;101138.81;;;20.03;73.81
43770;BME280;6597;52.218;9.882;2022-07-04T06:34:21;101138.00;;;20.28;70.32
43770;BME280;6597;52.218;9.882;2022-07-04T06:37:06;101152.59;;;20.23;68.46
43770;BME280;6597;52.218;9.882;2022-07-04T06:39:32;101148.31;;;20.07;68.93
43770;BME280;6597;52.218;9.882;2022-07-04T06:42:00;101150.34;;;20.04;70.00
43770;BME280;6597;52.218;9.882;2022-07-04T06:44:27;101156.63;;;19.90;69.92
43770;BME280;6597;52.218;9.882;2022-07-04T06:46:53;101150.31;;;19.91;68.19
43770;BME280;6597;52.218;9.882;2022-07-04T06:49:20;101148.13;;;20.23;66.80
43770;BME280;6597;52.218;9.882;2022-07-04T06:51:47;101150.47;;;20.28;66.13
43770;BME280;6597;52.218;9.882;2022-07-04T06:54:14;101146.50;;;20.33;64.93
43770;BME280;6597;52.218;9.882;2022-07-04T06:56:41;101154.84;;;20.29;65.45
43770;BME280;6597;52.218;9.882;2022-07-04T07:01:35;101147.06;;;20.64;64.13
43770;BME280;6597;52.218;9.882;2022-07-04T07:04:02;101148.66;;;20.66;64.84
43770;BME280;6597;52.218;9.882;2022-07-04T07:06:28;101159.56;;;20.63;65.56
43770;BME280;6597;52.218;9.882;2022-07-04T07:08:55;101157.88;;;20.49;64.19
43770;BME280;6597;52.218;9.882;2022-07-04T07:11:21;101154.63;;;20.32;64.67
43770;BME280;6597;52.218;9.882;2022-07-04T07:13:49;101155.59;;;20.31;65.48
43770;BME280;6597;52.218;9.882;2022-07-04T07:16:18;101147.59;;;20.69;65.04
43770;BME280;6597;52.218;9.882;2022-07-04T07:18:46;101144.91;;;21.18;61.77
43770;BME280;6597;52.218;9.882;2022-07-04T07:21:14;101154.22;;;21.25;62.51
43770;BME280;6597;52.218;9.882;2022-07-04T07:23:41;101149.53;;;21.16;61.73
43770;BME280;6597;52.218;9.882;2022-07-04T07:26:08;101153.84;;;20.93;61.39
43770;BME280;6597;52.218;9.882;2022-07-04T07:28:35;101152.06;;;20.68;62.75
43770;BME280;6597;52.218;9.882;2022-07-04T07:31:02;101159.34;;;20.54;64.20
43770;BME280;6597;52.218;9.882;2022-07-04T07:33:30;101162.53;;;20.46;63.61
43770;BME280;6597;52.218;9.882;2022-07-04T07:35:56;101155.16;;;20.24;64.97
43770;BME280;6597;52.218;9.882;2022-07-04T07:38:23;101174.16;;;20.19;66.30
43770;BME280;6597;52.218;9.882;2022-07-04T07:40:50;101164.63;;;20.15;67.06
43770;BME280;6597;52.218;9.882;2022-07-04T07:43:17;101168.56;;;20.10;65.99
43770;BME280;6597;52.218;9.882;2022-07-04T07:45:44;101160.16;;;20.29;65.17
43770;BME280;6597;52.218;9.882;2022-07-04T07:48:11;101154.84;;;20.67;64.74
43770;BME280;6597;52.218;9.882;2022-07-04T07:50:39;101154.31;;;21.24;62.06
43770;BME280;6597;52.218;9.882;2022-07-04T07:53:05;101152.06;;;21.54;58.66
43770;BME280;6597;52.218;9.882;2022-07-04T07:55:32;101154.19;;;21.73;57.64
43770;BME280;6597;52.218;9.882;2022-07-04T07:57:59;101156.69;;;21.87;57.34
43770;BME280;6597;52.218;9.882;2022-07-04T08:00:26;101158.56;;;21.74;56.73
43770;BME280;6597;52.218;9.882;2022-07-04T08:02:53;101165.03;;;21.48;57.20
43770;BME280;6597;52.218;9.882;2022-07-04T08:05:39;101156.88;;;21.25;58.01
43770;BME280;6597;52.218;9.882;2022-07-04T08:08:06;101154.75;;;21.65;57.04
43770;BME280;6597;52.218;9.882;2022-07-04T08:10:35;101151.44;;;22.21;53.42
43770;BME280;6597;52.218;9.882;2022-07-04T08:13:02;101149.16;;;22.72;52.38
43770;BME280;6597;52.218;9.882;2022-07-04T08:15:29;101145.63;;;23.16;50.88
43770;BME280;6597;52.218;9.882;2022-07-04T08:17:56;101143.09;;;23.58;49.47
43770;BME280;6597;52.218;9.882;2022-07-04T08:20:22;101149.41;;;23.57;48.39
43770;BME280;6597;52.218;9.882;2022-07-04T08:22:50;101149.00;;;23.29;49.29
43770;BME280;6597;52.218;9.882;2022-07-04T08:25:17;101140.19;;;22.95;51.07
43770;BME280;6597;52.218;9.882;2022-07-04T08:27:43;101146.63;;;22.59;51.48
43770;BME280;6597;52.218;9.882;2022-07-04T08:30:10;101151.56;;;22.30;53.62
43770;BME280;6597;52.218;9.882;2022-07-04T08:32:37;101153.59;;;22.04;55.73
43770;BME280;6597;52.218;9.882;2022-07-04T08:35:04;101145.03;;;21.88;56.20
43770;BME280;6597;52.218;9.882;2022-07-04T08:37:31;101154.72;;;22.13;55.35
43770;BME280;6597;52.218;9.882;2022-07-04T08:40:00;101146.84;;;22.34;56.16
43770;BME280;6597;52.218;9.882;2022-07-04T08:42:35;101139.91;;;22.76;53.49
43770;BME280;6597;52.218;9.882;2022-07-04T08:45:03;101139.06;;;23.09;51.30
43770;BME280;6597;52.218;9.882;2022-07-04T08:47:33;101142.84;;;23.50;49.64
43770;BME280;6597;52.218;9.882;2022-07-04T08:50:07;101141.28;;;23.79;49.44
43770;BME280;6597;52.218;9.882;2022-07-04T08:52:37;101151.63;;;23.84;49.25
43770;BME280;6597;52.218;9.882;2022-07-04T08:55:07;101148.88;;;23.74;48.62
43770;BME280;6597;52.218;9.882;2022-07-04T08:57:51;101144.53;;;23.51;49.03
43770;BME280;6597;52.218;9.882;2022-07-04T09:00:36;101152.94;;;23.14;49.92
43770;BME280;6597;52.218;9.882;2022-07-04T09:03:03;101151.50;;;22.77;52.21
43770;BME280;6597;52.218;9.882;2022-07-04T09:05:30;101162.91;;;22.45;52.81
43770;BME280;6597;52.218;9.882;2022-07-04T09:07:58;101162.88;;;22.34;52.99
43770;BME280;6597;52.218;9.882;2022-07-04T09:10:27;101155.59;;;22.70;53.00
43770;BME280;6597;52.218;9.882;2022-07-04T09:12:54;101160.03;;;23.36;48.21
43770;BME280;6597;52.218;9.882;2022-07-04T09:15:20;101157.56;;;23.87;45.53
43770;BME280;6597;52.218;9.882;2022-07-04T09:17:47;101147.75;;;23.98;44.34
43770;BME280;6597;52.218;9.882;2022-07-04T09:20:16;101155.09;;;24.37;43.80
43770;BME280;6597;52.218;9.882;2022-07-04T09:22:44;101145.31;;;24.97;42.09
43770;BME280;6597;52.218;9.882;2022-07-04T09:25:11;101151.25;;;25.41;41.68
43770;BME280;6597;52.218;9.882;2022-07-04T09:27:42;101148.53;;;25.60;41.94
43770;BME280;6597;52.218;9.882;2022-07-04T09:30:11;101161.44;;;25.37;41.94
43770;BME280;6597;52.218;9.882;2022-07-04T09:32:40;101157.00;;;25.17;41.03
43770;BME280;6597;52.218;9.882;2022-07-04T09:35:09;101159.66;;;25.07;41.21
43770;BME280;6597;52.218;9.882;2022-07-04T09:37:37;101164.97;;;24.98;41.31
43770;BME280;6597;52.218;9.882;2022-07-04T09:40:07;101152.84;;;25.03;41.72
43770;BME280;6597;52.218;9.882;2022-07-04T09:42:36;101152.34;;;25.29;39.38
43770;BME280;6597;52.218;9.882;2022-07-04T09:45:09;101144.31;;;25.58;38.01
43770;BME280;6597;52.218;9.882;2022-07-04T09:47:38;101151.13;;;25.91;39.90
43770;BME280;6597;52.218;9.882;2022-07-04T09:50:07;101143.31;;;26.07;37.78
43770;BME280;6597;52.218;9.882;2022-07-04T09:52:48;101136.75;;;26.19;37.11
43770;BME280;6597;52.218;9.882;2022-07-04T09:55:23;101139.88;;;26.24;36.72
43770;BME280;6597;52.218;9.882;2022-07-04T09:57:51;101141.81;;;26.32;36.42
43770;BME280;6597;52.218;9.882;2022-07-04T10:00:23;101143.00;;;26.20;35.84
43770;BME280;6597;52.218;9.882;2022-07-04T10:02:51;101142.28;;;26.18;38.87
43770;BME280;6597;52.218;9.882;2022-07-04T10:05:23;101139.16;;;26.42;37.59
43770;BME280;6597;52.218;9.882;2022-07-04T10:07:49;101133.22;;;26.38;36.08
43770;BME280;6597;52.218;9.882;2022-07-04T10:10:28;101124.41;;;26.46;38.29
43770;BME280;6597;52.218;9.882;2022-07-04T10:12:57;101126.56;;;26.70;35.12
43770;BME280;6597;52.218;9.882;2022-07-04T10:15:25;101128.53;;;26.95;35.99
43770;BME280;6597;52.218;9.882;2022-07-04T10:17:52;101124.28;;;26.75;36.07
43770;BME280;6597;52.218;9.882;2022-07-04T10:20:19;101122.91;;;26.14;34.88
43770;BME280;6597;52.218;9.882;2022-07-04T10:22:47;101127.03;;;25.60;37.20
43770;BME280;6597;52.218;9.882;2022-07-04T10:25:13;101121.81;;;25.59;37.82
43770;BME280;6597;52.218;9.882;2022-07-04T10:27:40;101122.25;;;25.83;35.00
43770;BME280;6597;52.218;9.882;2022-07-04T10:30:09;101118.56;;;26.03;36.21
43770;BME280;6597;52.218;9.882;2022-07-04T10:32:39;101123.44;;;26.37;34.52
43770;BME280;6597;52.218;9.882;2022-07-04T10:35:09;101119.22;;;26.62;35.42
43770;BME280;6597;52.218;9.882;2022-07-04T10:38:00;101119.19;;;26.99;35.20
43770;BME280;6597;52.218;9.882;2022-07-04T10:40:39;101113.16;;;27.33;35.69
43770;BME280;6597;52.218;9.882;2022-07-04T10:43:36;101117.91;;;27.56;34.78
43770;BME280;6597;52.218;9.882;2022-07-04T10:46:27;101107.59;;;27.87;33.99
43770;BME280;6597;52.218;9.882;2022-07-04T10:48:58;101115.25;;;27.74;34.16
43770;BME280;6597;52.218;9.882;2022-07-04T10:51:37;101109.44;;;27.87;32.61
43770;BME280;6597;52.218;9.882;2022-07-04T10:54:06;101110.56;;;28.02;32.62
43770;BME280;6597;52.218;9.882;2022-07-04T10:56:45;101113.03;;;27.96;32.35
43770;BME280;6597;52.218;9.882;2022-07-04T10:59:14;101104.84;;;27.62;32.17
43770;BME280;6597;52.218;9.882;2022-07-04T11:01:50;101096.44;;;27.47;34.42
43770;BME280;6597;52.218;9.882;2022-07-04T11:07:21;101108.25;;;26.73;34.92
43770;BME280;6597;52.218;9.882;2022-07-04T11:10:19;101106.34;;;26.09;36.40
43770;BME280;6597;52.218;9.882;2022-07-04T11:13:20;101105.78;;;25.96;34.46
43770;BME280;6597;52.218;9.882;2022-07-04T11:15:58;101100.78;;;26.20;35.71
43770;BME280;6597;52.218;9.882;2022-07-04T11:18:27;101091.97;;;26.65;36.01
43770;BME280;6597;52.218;9.882;2022-07-04T11:20:54;101096.75;;;27.26;33.90
43770;BME280;6597;52.218;9.882;2022-07-04T11:23:22;101092.50;;;27.77;33.79
43770;BME280;6597;52.218;9.882;2022-07-04T11:25:50;101090.41;;;28.14;32.92
43770;BME280;6597;52.218;9.882;2022-07-04T11:28:19;101085.53;;;27.92;32.94
43770;BME280;6597;52.218;9.882;2022-07-04T11:30:48;101086.44;;;28.01;32.15
43770;BME280;6597;52.218;9.882;2022-07-04T11:33:17;101085.31;;;28.11;33.34
43770;BME280;6597;52.218;9.882;2022-07-04T11:35:44;101083.19;;;28.23;32.37
43770;BME280;6597;52.218;9.882;2022-07-04T11:38:11;101076.06;;;28.40;31.33
43770;BME280;6597;52.218;9.882;2022-07-04T11:40:45;101070.72;;;28.56;32.12
43770;BME280;6597;52.218;9.882;2022-07-04T11:43:29;101077.22;;;28.71;32.76
43770;BME280;6597;52.218;9.882;2022-07-04T11:46:25;101073.94;;;29.02;30.99
43770;BME280;6597;52.218;9.882;2022-07-04T11:48:51;101068.38;;;29.11;30.43
43770;BME280;6597;52.218;9.882;2022-07-04T11:51:18;101069.56;;;29.17;31.18
43770;BME280;6597;52.218;9.882;2022-07-04T11:53:44;101073.31;;;29.40;31.33
43770;BME280;6597;52.218;9.882;2022-07-04T11:56:13;101069.31;;;29.61;30.81
43770;BME280;6597;52.218;9.882;2022-07-04T11:58:39;101068.28;;;29.70;29.46
43770;BME280;6597;52.218;9.882;2022-07-04T12:01:06;101070.66;;;29.65;29.83
43770;BME280;6597;52.218;9.882;2022-07-04T12:03:35;101068.09;;;29.31;30.24
43770;BME280;6597;52.218;9.882;2022-07-04T12:06:02;101077.84;;;29.16;31.96
43770;BME280;6597;52.218;9.882;2022-07-04T12:08:29;101081.06;;;29.19;31.96
43770;BME280;6597;52.218;9.882;2022-07-04T12:10:56;101078.03;;;28.64;30.42
43770;BME280;6597;52.218;9.882;2022-07-04T12:13:24;101076.03;;;28.32;31.11
43770;BME280;6597;52.218;9.882;2022-07-04T12:15:51;101085.34;;;28.37;31.89
43770;BME280;6597;52.218;9.882;2022-07-04T12:18:20;101085.81;;;28.33;32.14
43770;BME280;6597;52.218;9.882;2022-07-04T12:20:48;101085.91;;;28.57;31.82
43770;BME280;6597;52.218;9.882;2022-07-04T12:23:16;101073.16;;;28.33;31.43
43770;BME280;6597;52.218;9.882;2022-07-04T12:25:45;101078.34;;;28.01;31.96
43770;BME280;6597;52.218;9.882;2022-07-04T12:28:13;101072.81;;;27.41;32.72
43770;BME280;6597;52.218;9.882;2022-07-04T12:30:48;101069.88;;;26.89;34.56
43770;BME280;6597;52.218;9.882;2022-07-04T12:33:18;101075.34;;;26.52;33.79
43770;BME280;6597;52.218;9.882;2022-07-04T12:35:47;101074.72;;;26.21;35.23
43770;BME280;6597;52.218;9.882;2022-07-04T12:38:16;101077.19;;;25.95;35.71
43770;BME280;6597;52.218;9.882;2022-07-04T12:40:52;101074.28;;;25.69;35.79
43770;BME280;6597;52.218;9.882;2022-07-04T12:43:19;101077.69;;;25.42;35.79
43770;BME280;6597;52.218;9.882;2022-07-04T12:45:49;101072.84;;;25.55;37.00
43770;BME280;6597;52.218;9.882;2022-07-04T12:48:18;101064.97;;;26.20;35.96
43770;BME280;6597;52.218;9.882;2022-07-04T12:50:45;101074.09;;;26.46;35.07
43770;BME280;6597;52.218;9.882;2022-07-04T12:53:12;101063.38;;;26.37;35.35
43770;BME280;6597;52.218;9.882;2022-07-04T12:55:41;101059.13;;;26.34;35.34
43770;BME280;6597;52.218;9.882;2022-07-04T12:58:08;101065.06;;;26.38;36.42
43770;BME280;6597;52.218;9.882;2022-07-04T13:00:35;101062.91;;;26.31;35.62
43770;BME280;6597;52.218;9.882;2022-07-04T13:03:03;101055.28;;;26.64;35.90
43770;BME280;6597;52.218;9.882;2022-07-04T13:05:30;101054.25;;;26.92;35.01
43770;BME280;6597;52.218;9.882;2022-07-04T13:07:57;101056.47;;;26.79;35.32
43770;BME280;6597;52.218;9.882;2022-07-04T13:10:23;101056.41;;;26.44;35.19
43770;BME280;6597;52.218;9.882;2022-07-04T13:12:50;101053.66;;;26.16;35.30